createdAt,value
2022-12-22T00:00:25.573Z,0.55
2022-12-22T00:03:13.041Z,0.64
2022-12-22T00:06:00.207Z,0.93
2022-12-22T00:08:47.313Z,0.76
2022-12-22T00:11:34.448Z,0.69
2022-12-22T00:14:21.443Z,0.70
2022-12-22T00:17:08.432Z,1.00
2022-12-22T00:19:55.837Z,1.14
2022-12-22T00:22:44.636Z,1.02
2022-12-22T00:25:36.796Z,0.93
2022-12-22T00:28:33.048Z,0.85
2022-12-22T00:31:20.945Z,0.72
2022-12-22T00:34:08.388Z,0.40
2022-12-22T00:36:56.327Z,0.76
2022-12-22T00:39:44.523Z,0.77
2022-12-22T00:42:31.404Z,0.49
2022-12-22T00:45:18.383Z,0.43
2022-12-22T00:48:06.052Z,0.57
2022-12-22T00:50:55.887Z,0.70
2022-12-22T00:53:43.528Z,0.23
2022-12-22T00:56:30.800Z,0.32
2022-12-22T00:59:19.987Z,0.49
2022-12-22T01:02:07.869Z,0.29
2022-12-22T01:04:57.214Z,0.27
2022-12-22T01:07:46.672Z,0.42
2022-12-22T01:10:34.729Z,0.27
2022-12-22T01:13:29.706Z,0.16
2022-12-22T01:16:16.732Z,0.06
2022-12-22T01:19:04.136Z,0.00
2022-12-22T01:21:51.677Z,0.01
2022-12-22T01:24:38.667Z,0.15
2022-12-22T01:27:29.544Z,0.06
2022-12-22T01:30:16.979Z,0.36
2022-12-22T01:33:04.938Z,0.44
2022-12-22T01:35:53.959Z,0.23
2022-12-22T01:38:41.091Z,0.26
2022-12-22T01:41:34.061Z,0.46
2022-12-22T01:44:21.348Z,0.30
2022-12-22T01:47:08.727Z,0.33
2022-12-22T01:49:57.333Z,0.59
2022-12-22T01:52:51.989Z,0.54
2022-12-22T01:55:45.706Z,0.27
2022-12-22T01:59:00.622Z,0.50
2022-12-22T02:01:50.336Z,0.42
2022-12-22T02:04:40.991Z,0.29
2022-12-22T02:07:57.076Z,0.24
2022-12-22T02:10:44.559Z,0.36
2022-12-22T02:13:52.607Z,0.50
2022-12-22T02:17:11.873Z,0.81
2022-12-22T02:20:20.529Z,1.23
2022-12-22T02:23:23.598Z,1.73
2022-12-22T02:26:34.970Z,1.51
2022-12-22T02:29:24.301Z,1.63
2022-12-22T02:32:11.788Z,1.76
2022-12-22T02:34:59.753Z,2.78
2022-12-22T02:37:57.313Z,3.45
2022-12-22T02:41:04.506Z,3.48
2022-12-22T02:44:35.684Z,4.02
2022-12-22T02:47:46.764Z,4.65
2022-12-22T02:50:43.139Z,4.81
2022-12-22T02:53:33.078Z,4.85
2022-12-22T02:56:24.715Z,5.56
2022-12-22T02:59:13.407Z,5.65
2022-12-22T03:02:04.107Z,5.77
2022-12-22T03:04:51.425Z,5.59
2022-12-22T03:07:38.817Z,5.48
2022-12-22T03:10:26.933Z,5.35
2022-12-22T03:13:17.616Z,5.46
2022-12-22T03:16:04.954Z,5.19
2022-12-22T03:18:52.418Z,5.45
2022-12-22T03:21:39.487Z,5.05
2022-12-22T03:24:27.013Z,5.22
2022-12-22T03:26:56.439Z,5.17
2022-12-22T03:29:25.071Z,5.14
2022-12-22T03:31:53.943Z,4.81
2022-12-22T03:34:22.551Z,5.31
2022-12-22T03:36:51.532Z,5.51
2022-12-22T03:39:20.336Z,5.18
2022-12-22T03:42:07.539Z,5.18
2022-12-22T03:44:54.694Z,5.43
2022-12-22T03:47:24.082Z,5.52
2022-12-22T03:49:52.583Z,5.71
2022-12-22T03:52:21.619Z,5.33
2022-12-22T03:54:50.311Z,5.62
2022-12-22T03:57:19.129Z,5.68
2022-12-22T03:59:47.966Z,5.98
2022-12-22T04:02:16.986Z,5.85
2022-12-22T04:04:45.847Z,5.66
2022-12-22T04:07:14.744Z,5.84
2022-12-22T04:10:03.241Z,5.89
2022-12-22T04:12:50.493Z,6.23
2022-12-22T04:15:19.405Z,6.59
2022-12-22T04:17:48.106Z,6.77
2022-12-22T04:20:17.136Z,6.80
2022-12-22T04:22:46.245Z,6.74
2022-12-22T04:25:16.261Z,6.68
2022-12-22T04:27:45.058Z,6.49
2022-12-22T04:30:14.364Z,6.72
2022-12-22T04:32:43.697Z,6.78
2022-12-22T04:35:13.100Z,6.73
2022-12-22T04:37:41.739Z,6.92
2022-12-22T04:40:10.855Z,6.71
2022-12-22T04:42:39.850Z,7.02
2022-12-22T04:45:09.957Z,7.22
2022-12-22T04:47:38.867Z,7.03
2022-12-22T04:50:08.115Z,7.50
2022-12-22T04:52:37.116Z,7.50
2022-12-22T04:55:07.612Z,7.72
2022-12-22T04:57:40.854Z,7.83
2022-12-22T05:00:11.398Z,8.25
2022-12-22T05:02:40.725Z,8.24
2022-12-22T05:05:10.294Z,8.77
2022-12-22T05:07:39.132Z,8.64
2022-12-22T05:10:09.796Z,8.64
2022-12-22T05:12:59.108Z,8.42
2022-12-22T05:15:31.641Z,9.58
2022-12-22T05:18:02.271Z,9.97
2022-12-22T05:20:32.093Z,10.09
2022-12-22T05:23:01.093Z,10.11
2022-12-22T05:25:34.692Z,10.37
2022-12-22T05:28:04.625Z,10.87
2022-12-22T05:30:33.532Z,11.11
2022-12-22T05:33:05.431Z,11.45
2022-12-22T05:35:34.249Z,11.37
2022-12-22T05:38:02.961Z,11.64
2022-12-22T05:40:32.902Z,11.66
2022-12-22T05:43:01.702Z,11.30
2022-12-22T05:45:31.351Z,11.27
2022-12-22T05:48:00.047Z,11.07
2022-12-22T05:50:29.679Z,10.88
2022-12-22T05:53:07.256Z,10.80
2022-12-22T05:55:36.626Z,10.89
2022-12-22T05:58:05.192Z,10.34
2022-12-22T06:00:34.342Z,10.40
2022-12-22T06:03:03.201Z,10.25
2022-12-22T06:05:32.708Z,10.12
2022-12-22T06:08:01.693Z,10.06
2022-12-22T06:10:49.366Z,10.17
2022-12-22T06:13:36.661Z,9.95
2022-12-22T06:16:05.907Z,10.05
2022-12-22T06:18:34.908Z,10.36
2022-12-22T06:21:03.988Z,10.11
2022-12-22T06:23:32.617Z,10.46
2022-12-22T06:26:03.318Z,10.76
2022-12-22T06:28:32.763Z,11.04
2022-12-22T06:31:02.708Z,11.69
2022-12-22T06:33:32.059Z,12.97
2022-12-22T06:36:06.594Z,13.09
2022-12-22T06:38:36.336Z,13.97
2022-12-22T06:41:04.901Z,15.03
2022-12-22T06:43:33.906Z,15.30
2022-12-22T06:46:03.043Z,16.20
2022-12-22T06:48:31.876Z,16.22
2022-12-22T06:51:01.724Z,17.08
2022-12-22T06:53:30.605Z,17.00
2022-12-22T06:55:59.919Z,17.54
2022-12-22T06:58:29.011Z,17.78
2022-12-22T07:00:58.762Z,17.79
2022-12-22T07:03:27.809Z,18.36
2022-12-22T07:05:56.730Z,18.76
2022-12-22T07:11:11.530Z,19.50
2022-12-22T07:13:40.738Z,19.50
2022-12-22T07:16:11.630Z,19.45
2022-12-22T07:18:43.763Z,20.28
2022-12-22T07:21:14.942Z,19.87
2022-12-22T07:23:44.030Z,20.19
2022-12-22T07:26:13.766Z,20.38
2022-12-22T07:28:44.239Z,20.70
2022-12-22T07:31:13.562Z,21.12
2022-12-22T07:33:42.747Z,20.68
2022-12-22T07:36:20.032Z,20.62
2022-12-22T07:38:51.550Z,20.80
2022-12-22T07:41:39.661Z,20.77
2022-12-22T07:44:09.445Z,20.51
2022-12-22T07:46:39.787Z,20.71
2022-12-22T07:49:28.218Z,21.04
2022-12-22T07:51:59.028Z,20.78
2022-12-22T07:54:28.748Z,19.73
2022-12-22T07:56:57.860Z,20.79
2022-12-22T07:59:26.553Z,20.89
2022-12-22T08:01:55.698Z,21.08
2022-12-22T08:04:24.804Z,20.94
2022-12-22T08:06:53.380Z,21.22
2022-12-22T08:09:24.094Z,21.05
2022-12-22T08:11:53.169Z,21.11
2022-12-22T08:14:22.028Z,21.35
2022-12-22T08:16:51.349Z,20.53
2022-12-22T08:19:20.586Z,20.91
2022-12-22T08:21:52.876Z,20.94
2022-12-22T08:24:22.933Z,21.12
2022-12-22T08:26:56.975Z,21.27
2022-12-22T08:29:34.413Z,20.64
2022-12-22T08:32:03.506Z,21.15
2022-12-22T08:34:32.647Z,22.04
2022-12-22T08:37:07.022Z,21.81
2022-12-22T08:39:39.640Z,21.19
2022-12-22T08:42:12.630Z,21.51
2022-12-22T08:44:42.783Z,20.75
2022-12-22T08:47:16.617Z,20.69
2022-12-22T08:49:47.451Z,20.72
2022-12-22T08:52:18.728Z,20.75
2022-12-22T08:54:48.451Z,20.64
2022-12-22T08:57:17.336Z,20.23
2022-12-22T08:59:49.198Z,20.09
2022-12-22T09:02:18.214Z,20.73
2022-12-22T09:04:48.443Z,20.06
2022-12-22T09:07:19.355Z,20.10
2022-12-22T09:09:48.670Z,19.86
2022-12-22T09:12:18.926Z,20.04
2022-12-22T09:14:48.340Z,19.93
2022-12-22T09:17:16.912Z,19.63
2022-12-22T09:19:46.477Z,19.11
2022-12-22T09:22:15.324Z,19.00
2022-12-22T09:24:44.642Z,19.47
2022-12-22T09:27:13.843Z,19.43
2022-12-22T09:29:44.237Z,19.26
2022-12-22T09:32:13.593Z,18.92
2022-12-22T09:34:42.241Z,18.01
2022-12-22T09:37:12.225Z,18.09
2022-12-22T09:39:43.693Z,17.37
2022-12-22T09:42:21.261Z,17.12
2022-12-22T09:44:52.623Z,17.01
2022-12-22T09:47:41.094Z,17.18
2022-12-22T09:50:17.996Z,16.79
2022-12-22T09:53:07.669Z,16.36
2022-12-22T09:55:46.226Z,15.68
2022-12-22T09:58:26.500Z,15.54
2022-12-22T10:01:38.799Z,15.70
2022-12-22T10:04:31.831Z,15.54
2022-12-22T10:07:10.405Z,14.61
2022-12-22T10:09:50.051Z,14.91
2022-12-22T10:12:24.721Z,14.25
2022-12-22T10:14:56.495Z,13.96
2022-12-22T10:17:36.151Z,13.65
2022-12-22T10:20:28.779Z,13.77
2022-12-22T10:23:14.088Z,13.74
2022-12-22T10:28:52.043Z,13.68
2022-12-22T10:31:25.459Z,13.25
2022-12-22T10:33:58.172Z,13.02
2022-12-22T10:36:33.615Z,13.20
2022-12-22T10:39:04.334Z,12.94
2022-12-22T10:41:39.831Z,12.92
2022-12-22T10:44:18.299Z,12.60
2022-12-22T10:46:53.191Z,11.95
2022-12-22T10:52:33.827Z,11.82
2022-12-22T10:55:19.200Z,11.61
2022-12-22T10:57:50.605Z,11.13
2022-12-22T11:00:31.299Z,10.47
2022-12-22T11:03:02.883Z,10.19
2022-12-22T11:05:33.632Z,9.65
2022-12-22T11:08:18.236Z,9.06
2022-12-22T11:11:17.098Z,8.75
2022-12-22T11:13:58.933Z,8.46
2022-12-22T11:16:42.818Z,8.29
2022-12-22T11:19:48.903Z,7.88
2022-12-22T11:22:40.316Z,7.53
2022-12-22T11:26:05.470Z,7.34
2022-12-22T11:29:10.813Z,6.85
2022-12-22T11:31:55.546Z,6.82
2022-12-22T11:34:47.718Z,6.73
2022-12-22T11:37:41.273Z,6.55
2022-12-22T11:40:50.128Z,6.37
2022-12-22T11:43:46.598Z,5.77
2022-12-22T11:46:37.004Z,5.96
2022-12-22T11:49:20.377Z,5.79
2022-12-22T11:52:23.370Z,5.66
2022-12-22T11:54:59.142Z,5.50
2022-12-22T11:57:38.444Z,5.05
2022-12-22T12:00:19.689Z,5.39
2022-12-22T12:03:24.711Z,5.21
2022-12-22T12:06:06.797Z,4.80
2022-12-22T12:08:53.262Z,4.95
2022-12-22T12:11:29.735Z,4.92
2022-12-22T12:14:01.894Z,5.00
2022-12-22T12:17:01.117Z,4.86
2022-12-22T12:19:37.098Z,4.73
2022-12-22T12:22:12.131Z,4.77
2022-12-22T12:25:03.641Z,4.76
2022-12-22T12:27:42.367Z,4.70
2022-12-22T12:33:22.760Z,4.62
2022-12-22T12:36:07.382Z,4.46
2022-12-22T12:39:08.043Z,4.32
2022-12-22T12:42:08.678Z,4.14
2022-12-22T12:44:42.917Z,3.95
2022-12-22T12:47:31.132Z,3.84
2022-12-22T12:50:34.762Z,3.71
2022-12-22T12:53:10.322Z,3.42
2022-12-22T12:55:44.067Z,3.76
2022-12-22T12:58:34.180Z,3.77
2022-12-22T13:01:07.571Z,3.57
2022-12-22T13:06:54.594Z,3.55
2022-12-22T13:09:50.390Z,3.51
2022-12-22T13:12:36.122Z,3.49
2022-12-22T13:15:06.539Z,3.35
2022-12-22T13:17:49.485Z,3.43
2022-12-22T13:20:29.209Z,3.27
2022-12-22T13:23:02.847Z,3.36
2022-12-22T13:25:57.261Z,3.15
2022-12-22T13:28:29.624Z,2.98
2022-12-22T13:31:22.901Z,2.67
2022-12-22T13:34:46.284Z,3.03
2022-12-22T13:37:28.954Z,2.98
2022-12-22T13:40:33.132Z,2.61
2022-12-22T13:43:14.575Z,2.48
2022-12-22T13:46:07.166Z,2.35
2022-12-22T13:48:48.285Z,1.96
2022-12-22T13:51:36.760Z,2.10
2022-12-22T13:54:16.592Z,2.00
2022-12-22T13:56:48.198Z,2.00
2022-12-22T13:59:29.996Z,1.90
2022-12-22T14:02:05.657Z,1.78
2022-12-22T14:04:35.754Z,1.69
2022-12-22T14:07:23.055Z,1.73
2022-12-22T14:09:57.415Z,2.07
2022-12-22T14:12:41.289Z,2.20
2022-12-22T14:15:19.126Z,2.01
2022-12-22T14:17:53.162Z,1.71
2022-12-22T14:20:30.085Z,1.61
2022-12-22T14:23:22.649Z,1.49
2022-12-22T14:25:55.405Z,1.50
2022-12-22T14:28:31.547Z,1.50
2022-12-22T14:31:02.672Z,1.13
2022-12-22T14:33:36.158Z,1.50
2022-12-22T14:36:07.868Z,2.06
2022-12-22T14:38:51.086Z,2.29
2022-12-22T14:41:59.082Z,2.23
2022-12-22T14:44:46.353Z,2.39
2022-12-22T14:47:24.243Z,2.29
2022-12-22T14:50:15.656Z,2.25
2022-12-22T14:52:52.617Z,2.43
2022-12-22T14:55:36.843Z,2.60
2022-12-22T14:58:13.751Z,2.78
2022-12-22T15:00:49.744Z,2.56
2022-12-22T15:03:40.240Z,2.69
2022-12-22T15:06:29.264Z,2.66
2022-12-22T15:09:13.171Z,2.64
2022-12-22T15:11:48.132Z,2.42
2022-12-22T15:14:23.614Z,2.33
2022-12-22T15:17:03.898Z,2.19
2022-12-22T15:19:36.844Z,1.87
2022-12-22T15:22:09.772Z,1.88
2022-12-22T15:24:39.875Z,2.11
2022-12-22T15:27:09.575Z,1.72
2022-12-22T15:29:39.618Z,1.72
2022-12-22T15:32:16.638Z,1.67
2022-12-22T15:34:47.132Z,1.59
2022-12-22T15:37:17.385Z,1.29
2022-12-22T15:39:48.584Z,1.31
2022-12-22T15:42:19.268Z,0.91
2022-12-22T15:44:49.518Z,1.23
2022-12-22T15:47:24.607Z,1.17
2022-12-22T15:49:55.013Z,1.07
2022-12-22T15:52:28.227Z,1.15
2022-12-22T15:55:00.448Z,0.77
2022-12-22T15:57:31.383Z,0.78
2022-12-22T16:00:01.895Z,0.96
2022-12-22T16:02:33.570Z,0.76
2022-12-22T16:05:04.024Z,0.97
2022-12-22T16:07:34.631Z,1.01
2022-12-22T16:10:07.142Z,1.30
2022-12-22T16:12:38.487Z,1.39
2022-12-22T16:15:16.107Z,1.57
2022-12-22T16:17:47.522Z,1.62
2022-12-22T16:20:17.784Z,1.83
2022-12-22T16:22:47.771Z,1.72
2022-12-22T16:25:22.604Z,1.63
2022-12-22T16:27:53.444Z,1.82
2022-12-22T16:30:26.181Z,1.91
2022-12-22T16:32:57.885Z,1.91
2022-12-22T16:35:30.778Z,1.78
2022-12-22T16:38:02.319Z,1.66
2022-12-22T16:40:35.098Z,1.73
2022-12-22T16:46:02.268Z,1.66
2022-12-22T16:48:44.909Z,1.82
2022-12-22T16:51:40.491Z,1.80
2022-12-22T16:54:16.037Z,1.89
2022-12-22T16:56:53.606Z,1.77
2022-12-22T16:59:43.667Z,1.87
2022-12-22T17:02:36.940Z,1.93
2022-12-22T17:05:14.768Z,2.43
2022-12-22T17:07:46.745Z,2.58
2022-12-22T17:10:19.079Z,2.98
2022-12-22T17:12:55.218Z,3.11
2022-12-22T17:15:26.073Z,3.02
2022-12-22T17:17:57.655Z,2.92
2022-12-22T17:20:30.573Z,3.33
2022-12-22T17:23:05.375Z,3.31
2022-12-22T17:25:35.744Z,3.31
2022-12-22T17:28:06.227Z,3.38
2022-12-22T17:30:37.070Z,3.34
2022-12-22T17:33:07.209Z,3.44
2022-12-22T17:35:38.588Z,3.55
2022-12-22T17:38:23.871Z,3.64
2022-12-22T17:40:54.914Z,3.70
2022-12-22T17:43:28.046Z,3.67
2022-12-22T17:45:58.038Z,3.53
2022-12-22T17:48:27.690Z,3.48
2022-12-22T17:50:58.203Z,3.37
2022-12-22T17:53:29.160Z,3.29
2022-12-22T17:56:09.551Z,3.20
2022-12-22T17:58:39.963Z,3.43
2022-12-22T18:01:20.837Z,3.39
2022-12-22T18:03:51.199Z,3.42
2022-12-22T18:06:23.434Z,3.36
2022-12-22T18:08:55.178Z,3.63
2022-12-22T18:11:25.436Z,3.63
2022-12-22T18:13:58.262Z,3.28
2022-12-22T18:16:28.462Z,3.38
2022-12-22T18:18:57.701Z,3.44
2022-12-22T18:21:30.271Z,3.44
2022-12-22T18:24:02.067Z,3.35
2022-12-22T18:26:33.373Z,3.44
2022-12-22T18:29:05.111Z,3.26
2022-12-22T18:31:35.387Z,3.27
2022-12-22T18:34:06.637Z,3.31
2022-12-22T18:36:37.370Z,3.28
2022-12-22T18:39:11.817Z,3.59
2022-12-22T18:41:44.922Z,3.46
2022-12-22T18:44:18.876Z,3.32
2022-12-22T18:46:49.805Z,3.55
2022-12-22T18:49:19.388Z,3.61
2022-12-22T18:51:48.825Z,3.52
2022-12-22T18:54:39.229Z,3.39
2022-12-22T18:57:16.012Z,3.55
2022-12-22T18:59:46.472Z,3.68
2022-12-22T19:02:29.704Z,3.60
2022-12-22T19:04:59.555Z,3.49
2022-12-22T19:07:28.969Z,3.57
2022-12-22T19:09:58.837Z,3.48
2022-12-22T19:12:29.865Z,3.26
2022-12-22T19:15:04.902Z,3.20
2022-12-22T19:17:34.628Z,2.66
2022-12-22T19:20:03.841Z,2.34
2022-12-22T19:22:33.208Z,2.63
2022-12-22T19:25:03.148Z,2.48
2022-12-22T19:27:37.125Z,2.50
2022-12-22T19:30:07.446Z,2.56
2022-12-22T19:32:49.293Z,2.67
2022-12-22T19:35:22.140Z,2.75
2022-12-22T19:37:53.265Z,2.68
2022-12-22T19:40:29.194Z,2.32
2022-12-22T19:42:59.891Z,2.38
2022-12-22T19:45:37.251Z,1.74
2022-12-22T19:48:18.899Z,2.27
2022-12-22T19:50:49.729Z,2.12
2022-12-22T19:53:20.288Z,2.19
2022-12-22T19:55:56.673Z,2.00
2022-12-22T19:58:32.503Z,2.23
2022-12-22T20:01:02.034Z,2.05
2022-12-22T20:03:31.621Z,1.86
2022-12-22T20:06:01.066Z,1.83
2022-12-22T20:08:30.652Z,1.95
2022-12-22T20:11:01.820Z,1.34
2022-12-22T20:13:35.188Z,1.48
2022-12-22T20:16:06.236Z,1.38
2022-12-22T20:18:36.137Z,1.39
2022-12-22T20:21:09.393Z,1.37
2022-12-22T20:23:40.332Z,1.19
2022-12-22T20:26:16.682Z,1.09
2022-12-22T20:28:46.011Z,1.23
2022-12-22T20:31:17.348Z,1.42
2022-12-22T20:33:48.098Z,1.27
2022-12-22T20:36:25.727Z,1.42
2022-12-22T20:38:56.912Z,1.23
2022-12-22T20:41:26.992Z,1.26
2022-12-22T20:43:56.287Z,1.18
2022-12-22T20:46:28.742Z,0.81
2022-12-22T20:49:01.375Z,1.31
2022-12-22T20:51:33.702Z,1.41
2022-12-22T20:54:03.664Z,1.40
2022-12-22T20:56:39.180Z,1.29
2022-12-22T20:59:21.973Z,1.03
2022-12-22T21:01:53.585Z,0.94
2022-12-22T21:04:29.307Z,0.75
2022-12-22T21:06:59.148Z,0.92
2022-12-22T21:09:28.503Z,0.71
2022-12-22T21:11:57.832Z,0.73
2022-12-22T21:14:27.135Z,0.66
2022-12-22T21:16:59.512Z,0.12
2022-12-22T21:19:29.318Z,0.32
2022-12-22T21:21:58.417Z,0.29
2022-12-22T21:24:27.666Z,0.16
2022-12-22T21:26:57.581Z,0.05
2022-12-22T21:29:28.413Z,-0.23
2022-12-22T21:31:57.764Z,-0.36
2022-12-22T21:34:26.986Z,-0.40
2022-12-22T21:37:04.881Z,-0.44
2022-12-22T21:39:45.872Z,-0.26
2022-12-22T21:42:24.349Z,-0.47
2022-12-22T21:44:54.377Z,-0.74
2022-12-22T21:47:23.604Z,-0.48
2022-12-22T21:49:53.192Z,-0.50
2022-12-22T21:52:22.481Z,-0.79
2022-12-22T21:54:52.433Z,-0.42
2022-12-22T21:57:21.789Z,-0.33
2022-12-22T21:59:51.307Z,-0.37
2022-12-22T22:02:20.689Z,-0.32
2022-12-22T22:04:54.529Z,-0.02
2022-12-22T22:07:25.229Z,0.08
2022-12-22T22:09:55.405Z,0.40
2022-12-22T22:12:33.696Z,0.31
2022-12-22T22:15:03.305Z,0.58
2022-12-22T22:17:32.388Z,0.67
2022-12-22T22:20:02.536Z,0.80
2022-12-22T22:22:32.130Z,1.03
2022-12-22T22:25:01.532Z,1.44
2022-12-22T22:27:30.777Z,1.56
2022-12-22T22:29:59.953Z,2.05
2022-12-22T22:32:29.112Z,2.24
2022-12-22T22:34:59.203Z,2.39
2022-12-22T22:37:28.495Z,2.56
2022-12-22T22:39:58.601Z,2.26
2022-12-22T22:42:28.016Z,2.46
2022-12-22T22:44:58.285Z,2.96
2022-12-22T22:47:27.546Z,2.62
2022-12-22T22:49:56.894Z,2.41
2022-12-22T22:52:26.144Z,2.38
2022-12-22T22:54:55.509Z,2.11
2022-12-22T22:57:24.887Z,2.30
2022-12-22T22:59:54.146Z,2.29
2022-12-22T23:02:23.622Z,1.73
2022-12-22T23:04:53.395Z,1.96
2022-12-22T23:07:22.557Z,1.51
2022-12-22T23:09:52.424Z,1.47
2022-12-22T23:12:21.778Z,1.17
2022-12-22T23:14:51.136Z,1.22
2022-12-22T23:17:20.393Z,0.95
2022-12-22T23:19:50.267Z,0.98
2022-12-22T23:22:19.520Z,0.89
2022-12-22T23:24:48.888Z,0.67
2022-12-22T23:27:18.641Z,0.68
2022-12-22T23:29:47.952Z,0.82
2022-12-22T23:32:17.432Z,0.99
2022-12-22T23:34:46.886Z,0.62
2022-12-22T23:37:19.742Z,0.88
2022-12-22T23:39:49.170Z,0.82
2022-12-22T23:42:18.734Z,0.92
2022-12-22T23:44:49.282Z,0.97
2022-12-22T23:47:18.494Z,0.82
2022-12-22T23:49:47.720Z,0.70
2022-12-22T23:52:17.069Z,0.96
2022-12-22T23:54:46.068Z,1.04
2022-12-22T23:57:15.419Z,1.12
2022-12-22T23:59:44.654Z,0.92
